Time;durP1;ratioP1;P1;durP2;ratioP2;P2;SDS_P1;SDS_P2;PMS_P1;PMS_P2;Temp;Humidity;BMP_temperature;BMP_pressure;BME280_temperature;BME280_humidity;BME280_pressure;Samples;Min_cycle;Max_cycle;Signal;HPM_P1;HPM_P2
2022/06/02 00:02:32;;;;;;;8.63;4.20;;;11.20;99.90;;;;;;5045856;28;20500;-32
2022/06/02 00:05:25;;;;;;;10.55;4.70;;;11.10;99.90;;;;;;5046375;28;20031;-45
2022/06/02 00:08:23;;;;;;;8.20;5.13;;;11.10;99.90;;;;;;5041372;28;20520;-35
2022/06/02 00:11:03;;;;;;;7.68;5.10;;;11.10;99.90;;;;;;5049744;28;20037;-35
2022/06/02 00:13:35;;;;;;;6.20;4.05;;;11.10;99.90;;;;;;5042192;28;20072;-35
2022/06/02 00:16:14;;;;;;;7.68;5.43;;;11.10;99.90;;;;;;5051694;28;20072;-33
2022/06/02 00:18:53;;;;;;;7.60;4.53;;;11.00;99.90;;;;;;5050335;28;20025;-34
2022/06/02 00:21:35;;;;;;;7.40;5.05;;;11.00;99.90;;;;;;5033519;28;20029;-30
2022/06/02 00:24:15;;;;;;;5.25;4.75;;;11.00;99.90;;;;;;5033695;28;20549;-33
2022/06/02 00:27:07;;;;;;;6.18;5.25;;;10.90;99.90;;;;;;5034474;28;20124;-35
2022/06/02 00:29:44;;;;;;;5.78;4.90;;;10.90;99.90;;;;;;5033394;28;20524;-37
2022/06/02 00:32:40;;;;;;;8.23;4.95;;;10.80;99.90;;;;;;5033369;28;20038;-34
2022/06/02 00:35:24;;;;;;;6.93;5.20;;;10.80;99.90;;;;;;5033724;28;20025;-29
2022/06/02 00:38:00;;;;;;;6.72;5.65;;;10.80;99.90;;;;;;5032851;28;20030;-32
2022/06/02 00:40:28;;;;;;;7.88;5.18;;;10.80;99.90;;;;;;5047058;28;20078;-28
2022/06/02 00:43:05;;;;;;;6.72;5.15;;;10.70;99.90;;;;;;5053186;28;20029;-29
2022/06/02 00:45:31;;;;;;;6.10;4.60;;;10.70;99.90;;;;;;5043832;28;20028;-31
2022/06/02 00:48:37;;;;;;;11.70;5.38;;;10.70;99.90;;;;;;5042813;28;20029;-30
2022/06/02 00:51:25;;;;;;;12.77;5.07;;;10.60;99.90;;;;;;5044970;28;20032;-43
2022/06/02 00:57:30;;;;;;;7.38;5.53;;;10.60;99.90;;;;;;5039445;28;20867;-37
2022/06/02 01:00:11;;;;;;;5.40;4.75;;;10.60;99.90;;;;;;5040082;28;20040;-35
2022/06/02 01:03:04;;;;;;;7.40;6.00;;;10.60;99.90;;;;;;5047781;28;20032;-35
2022/06/02 01:05:48;;;;;;;9.07;5.78;;;10.60;99.90;;;;;;5051682;28;20030;-41
2022/06/02 01:08:42;;;;;;;7.78;5.65;;;10.60;99.90;;;;;;5047709;28;20396;-37
2022/06/02 01:11:32;;;;;;;7.47;5.57;;;10.60;99.90;;;;;;5053526;28;20507;-35
2022/06/02 01:14:29;;;;;;;7.93;5.20;;;10.60;99.90;;;;;;5042229;28;20037;-37
2022/06/02 01:17:04;;;;;;;8.20;5.80;;;10.60;99.90;;;;;;5049342;28;20049;-31
2022/06/02 01:19:48;;;;;;;10.02;5.90;;;10.60;99.90;;;;;;5051727;28;20436;-30
2022/06/02 01:22:47;;;;;;;8.63;6.38;;;10.60;99.90;;;;;;5052538;28;20372;-33
2022/06/02 01:25:19;;;;;;;9.48;6.43;;;10.50;99.90;;;;;;5047096;28;20053;-29
2022/06/02 01:28:22;;;;;;;9.35;6.38;;;10.50;99.90;;;;;;5055158;28;20480;-31
2022/06/02 01:31:25;;;;;;;7.38;5.22;;;10.50;99.90;;;;;;5050775;28;20124;-33
2022/06/02 01:34:09;;;;;;;10.45;6.00;;;10.50;99.90;;;;;;5041854;28;20025;-31
2022/06/02 01:37:05;;;;;;;10.38;5.75;;;10.50;99.90;;;;;;5043390;28;20028;-36
2022/06/02 01:40:02;;;;;;;12.40;6.28;;;10.50;99.90;;;;;;5050766;28;20401;-30
2022/06/02 01:42:41;;;;;;;9.55;6.90;;;10.40;99.90;;;;;;5033914;28;20501;-32
2022/06/02 01:45:38;;;;;;;8.27;6.55;;;10.40;99.90;;;;;;5035313;28;20029;-40
2022/06/02 01:48:16;;;;;;;10.35;6.38;;;10.40;99.90;;;;;;5042560;28;20519;-35
2022/06/02 01:50:51;;;;;;;;;;;10.40;99.90;;;;;;5042290;28;20486;-36
2022/06/02 01:53:34;;;;;;;15.60;6.68;;;10.30;99.90;;;;;;5049997;28;19991;-34
2022/06/02 01:56:11;;;;;;;12.07;7.28;;;10.30;99.90;;;;;;5040301;28;20033;-35
2022/06/02 01:58:55;;;;;;;10.43;6.70;;;10.30;99.90;;;;;;5041660;28;20548;-35
2022/06/02 02:01:26;;;;;;;12.10;7.20;;;10.20;99.90;;;;;;5036309;28;20129;-35
2022/06/02 02:04:21;;;;;;;10.73;6.88;;;10.20;99.90;;;;;;5045208;28;20025;-35
2022/06/02 02:07:11;;;;;;;12.73;7.88;;;10.20;99.90;;;;;;5052259;28;20036;-37
2022/06/02 02:10:00;;;;;;;11.75;7.03;;;10.20;99.90;;;;;;5035835;28;20032;-35
2022/06/02 02:12:57;;;;;;;9.38;7.28;;;10.20;99.90;;;;;;5050420;28;20078;-29
2022/06/02 02:15:47;;;;;;;8.50;5.47;;;10.20;99.90;;;;;;5048105;28;20502;-34
2022/06/02 02:18:59;;;;;;;15.25;8.95;;;10.10;99.90;;;;;;5046826;28;20067;-28
2022/06/02 02:22:04;;;;;;;14.15;7.70;;;10.10;99.90;;;;;;5045744;28;20072;-32
2022/06/02 02:24:48;;;;;;;19.75;8.57;;;10.10;99.90;;;;;;5045074;28;20067;-33
2022/06/02 02:27:20;;;;;;;10.82;7.53;;;10.10;99.90;;;;;;5036447;28;20029;-37
2022/06/02 02:30:13;;;;;;;16.30;8.55;;;10.10;99.90;;;;;;5046816;28;20025;-37
2022/06/02 02:32:57;;;;;;;13.07;8.45;;;10.10;99.90;;;;;;5045793;28;20125;-37
2022/06/02 02:36:01;;;;;;;13.15;8.73;;;10.00;99.90;;;;;;5050895;28;20041;-35
2022/06/02 02:38:54;;;;;;;11.55;8.13;;;10.00;99.90;;;;;;5040971;28;20036;-35
2022/06/02 02:41:43;;;;;;;18.35;8.98;;;10.00;99.90;;;;;;5048528;28;20547;-35
2022/06/02 02:44:24;;;;;;;14.40;9.75;;;10.00;99.90;;;;;;5052525;28;20070;-32
2022/06/02 02:46:54;;;;;;;13.50;8.80;;;10.00;99.90;;;;;;5053743;28;20037;-34
2022/06/02 02:49:43;;;;;;;14.60;8.50;;;10.00;99.90;;;;;;5042162;28;20025;-34
2022/06/02 02:52:33;;;;;;;11.98;8.18;;;9.90;99.90;;;;;;5050706;28;20037;-29
2022/06/02 02:55:41;;;;;;;13.95;8.23;;;10.00;99.90;;;;;;5051952;28;20032;-30
2022/06/02 02:58:14;;;;;;;;;;;9.90;99.90;;;;;;5018977;28;20034;-34
2022/06/02 03:00:59;;;;;;;12.82;8.60;;;9.90;99.90;;;;;;5018735;28;20373;-28
2022/06/02 03:03:40;;;;;;;14.38;8.75;;;9.90;99.90;;;;;;5038604;28;20119;-32
2022/06/02 03:06:26;;;;;;;13.57;8.70;;;9.90;99.90;;;;;;5041915;28;20029;-35
2022/06/02 03:08:58;;;;;;;11.80;8.35;;;9.90;99.90;;;;;;5049264;28;20060;-32
2022/06/02 03:11:33;;;;;;;13.77;9.30;;;9.90;99.90;;;;;;5049893;28;20037;-28
2022/06/02 03:14:04;;;;;;;12.95;8.15;;;9.90;99.90;;;;;;5051445;28;20057;-30
2022/06/02 03:16:32;;;;;;;13.43;8.60;;;9.90;99.90;;;;;;5048520;28;20021;-34
2022/06/02 03:22:17;;;;;;;17.85;8.45;;;9.90;99.90;;;;;;5039937;28;20056;-37
2022/06/02 03:24:56;;;;;;;12.80;8.77;;;9.80;99.90;;;;;;5046074;28;20033;-31
2022/06/02 03:27:46;;;;;;;15.73;9.00;;;9.90;99.90;;;;;;5049854;28;20726;-31
2022/06/02 03:30:29;;;;;;;15.25;9.15;;;9.80;99.90;;;;;;5043518;28;20481;-36
2022/06/02 03:33:32;;;;;;;14.15;9.10;;;9.80;99.90;;;;;;5051127;28;20107;-35
2022/06/02 03:36:34;;;;;;;16.40;8.77;;;9.80;99.90;;;;;;5043777;28;20449;-33
2022/06/02 03:39:08;;;;;;;13.38;8.25;;;9.80;99.90;;;;;;5046753;28;20029;-31
2022/06/02 03:41:43;;;;;;;14.88;8.98;;;9.80;99.90;;;;;;5037028;28;20154;-31
2022/06/02 03:44:23;;;;;;;11.20;8.27;;;9.80;99.90;;;;;;5049805;28;20042;-32
2022/06/02 03:47:14;;;;;;;12.95;8.45;;;9.80;99.90;;;;;;5052525;28;20043;-30
2022/06/02 03:49:42;;;;;;;14.75;8.75;;;9.80;99.90;;;;;;5036176;28;20495;-31
2022/06/02 03:52:42;;;;;;;13.50;8.95;;;9.70;99.90;;;;;;5041817;28;20025;-33
2022/06/02 03:55:11;;;;;;;13.50;8.50;;;9.70;99.90;;;;;;5050345;28;20493;-31
2022/06/02 03:57:46;;;;;;;14.57;9.20;;;9.70;99.90;;;;;;5039838;28;20508;-29
2022/06/02 04:00:26;;;;;;;12.02;8.38;;;9.70;99.90;;;;;;5035175;28;20024;-31
2022/06/02 04:02:59;;;;;;;14.48;9.82;;;9.80;99.90;;;;;;5048035;28;20100;-30
2022/06/02 04:05:45;;;;;;;13.93;8.98;;;9.80;99.90;;;;;;5043715;28;20546;-35
2022/06/02 04:08:23;;;;;;;13.63;8.73;;;9.80;99.90;;;;;;5032342;28;20049;-35
2022/06/02 04:10:52;;;;;;;16.70;9.98;;;9.90;99.90;;;;;;5036775;28;20060;-35
2022/06/02 04:13:39;;;;;;;14.20;9.18;;;9.90;99.90;;;;;;5036611;28;20060;-35
2022/06/02 04:16:33;;;;;;;14.07;8.88;;;9.90;99.90;;;;;;5033391;28;20071;-36
2022/06/02 04:20:34;;;;;;;14.68;9.55;;;10.00;99.90;;;;;;5047401;28;20550;-33
2022/06/02 04:22:22;;;;;;;12.85;9.20;;;10.00;99.90;;;;;;5033015;28;20470;-34
2022/06/02 04:25:21;;;;;;;13.68;9.48;;;10.00;99.90;;;;;;5038453;28;20472;-32
2022/06/02 04:28:13;;;;;;;12.30;8.45;;;10.00;99.90;;;;;;5046425;28;20501;-37
2022/06/02 04:30:58;;;;;;;14.27;9.40;;;10.00;99.90;;;;;;5045457;28;20060;-37
2022/06/02 04:33:35;;;;;;;16.08;8.68;;;10.00;99.90;;;;;;5033061;28;20468;-35
2022/06/02 04:36:16;;;;;;;14.70;9.13;;;10.10;99.90;;;;;;5050469;28;20497;-35
2022/06/02 04:39:03;;;;;;;12.85;9.02;;;10.10;99.90;;;;;;5048304;28;20060;-35
2022/06/02 04:41:51;;;;;;;15.40;7.63;;;10.10;99.90;;;;;;5049379;28;20104;-35
2022/06/02 04:44:41;;;;;;;17.45;10.07;;;10.20;99.90;;;;;;5042330;28;20033;-30
2022/06/02 04:47:33;;;;;;;14.70;9.98;;;10.30;99.90;;;;;;5049122;28;20381;-33
2022/06/02 04:50:10;;;;;;;16.98;9.65;;;10.40;99.90;;;;;;5039617;28;20037;-46
2022/06/02 04:53:06;;;;;;;13.60;9.30;;;10.50;99.90;;;;;;5038411;28;20489;-36
2022/06/02 04:55:59;;;;;;;14.32;9.57;;;10.50;99.90;;;;;;5050243;28;20057;-53
2022/06/02 04:59:10;;;;;;;16.45;10.57;;;10.60;99.90;;;;;;5040991;28;20496;-35
2022/06/02 05:01:47;;;;;;;22.40;10.60;;;10.80;99.90;;;;;;5032243;28;20040;-46
2022/06/02 05:04:41;;;;;;;15.02;9.77;;;10.90;99.90;;;;;;5041449;28;20029;-37
2022/06/02 05:07:20;;;;;;;21.30;10.68;;;10.90;99.90;;;;;;5050258;28;20025;-36
2022/06/02 05:10:11;;;;;;;16.48;10.20;;;11.10;99.90;;;;;;5045382;28;20408;-38
2022/06/02 05:12:58;;;;;;;15.48;9.77;;;11.10;99.90;;;;;;5032423;28;20025;-34
2022/06/02 05:15:46;;;;;;;17.42;10.35;;;11.20;99.90;;;;;;5038605;28;20490;-33
2022/06/02 05:18:22;;;;;;;18.15;11.18;;;11.20;99.90;;;;;;5048345;28;20104;-46
2022/06/02 05:20:56;;;;;;;18.15;11.75;;;11.30;99.90;;;;;;5043051;28;20047;-41
2022/06/02 05:24:18;;;;;;;17.15;10.80;;;11.40;99.90;;;;;;5043476;28;20033;-37
2022/06/02 05:27:05;;;;;;;16.45;9.38;;;11.50;99.90;;;;;;5029177;28;20481;-37
2022/06/02 05:29:49;;;;;;;20.48;10.82;;;11.60;99.90;;;;;;5028444;28;20075;-36
2022/06/02 05:32:30;;;;;;;18.63;10.00;;;11.70;99.90;;;;;;5043361;28;20063;-35
2022/06/02 05:35:20;;;;;;;16.92;9.25;;;11.80;99.90;;;;;;5043063;28;20021;-36
2022/06/02 05:38:04;;;;;;;18.33;10.40;;;11.90;99.90;;;;;;5034871;28;20029;-35
2022/06/02 05:40:41;;;;;;;18.75;9.98;;;12.00;99.90;;;;;;5043548;28;20439;-36
2022/06/02 05:43:18;;;;;;;19.73;9.88;;;12.10;99.90;;;;;;5042810;28;20021;-38
2022/06/02 05:45:53;;;;;;;19.42;10.15;;;12.30;99.90;;;;;;5045491;28;20060;-37
2022/06/02 05:48:36;;;;;;;15.85;9.90;;;12.40;99.90;;;;;;5041917;28;20033;-36
2022/06/02 05:51:18;;;;;;;14.70;9.63;;;12.50;99.90;;;;;;5036141;28;20496;-43
2022/06/02 05:54:07;;;;;;;12.27;8.00;;;12.50;99.90;;;;;;5042539;28;20025;-36
2022/06/02 05:56:50;;;;;;;10.15;7.63;;;12.70;99.90;;;;;;5056080;28;20072;-37
2022/06/02 05:59:27;;;;;;;12.18;8.38;;;12.80;99.90;;;;;;5052165;28;20033;-38
2022/06/02 06:02:09;;;;;;;9.27;6.47;;;13.20;99.90;;;;;;5052257;28;20102;-37
2022/06/02 06:04:38;;;;;;;8.15;6.10;;;13.70;99.90;;;;;;5053127;28;20074;-36
2022/06/02 06:07:13;;;;;;;12.85;6.60;;;14.00;99.90;;;;;;5043750;28;20034;-35
2022/06/02 06:09:56;;;;;;;4.53;3.70;;;14.10;99.90;;;;;;5048202;28;20029;-36
2022/06/02 06:12:22;;;;;;;8.30;4.57;;;14.30;99.90;;;;;;5033854;28;20026;-36
2022/06/02 06:14:47;;;;;;;8.65;5.00;;;14.40;99.90;;;;;;5046821;28;20052;-34
2022/06/02 06:17:30;;;;;;;12.10;5.85;;;14.70;99.90;;;;;;5046447;28;20037;-30
2022/06/02 06:20:14;;;;;;;8.35;4.35;;;16.30;99.90;;;;;;5050403;28;20041;-32
2022/06/02 06:22:40;;;;;;;3.85;3.15;;;18.40;99.90;;;;;;5046367;28;20388;-44
2022/06/02 06:25:21;;;;;;;3.45;2.95;;;20.30;99.90;;;;;;5044073;28;20108;-37
2022/06/02 06:27:58;;;;;;;4.85;2.40;;;21.50;99.90;;;;;;5035674;28;20067;-35
2022/06/02 06:30:31;;;;;;;6.50;3.42;;;22.60;99.90;;;;;;5047976;28;20079;-35
2022/06/02 06:33:14;;;;;;;3.55;3.15;;;23.30;99.70;;;;;;5042172;28;20404;-34
2022/06/02 06:36:17;;;;;;;6.47;3.80;;;24.20;98.30;;;;;;5041247;28;20037;-34
2022/06/02 06:39:14;;;;;;;5.68;3.53;;;24.60;97.50;;;;;;5034734;28;20033;-42
2022/06/02 06:41:55;;;;;;;;;;;24.10;98.20;;;;;;5040830;28;20385;-37
2022/06/02 06:44:46;;;;;;;8.50;3.42;;;23.90;97.90;;;;;;5035209;28;19920;-37
2022/06/02 06:47:37;;;;;;;6.55;3.90;;;22.80;98.90;;;;;;5034321;28;20112;-35
2022/06/02 06:50:22;;;;;;;4.72;4.20;;;20.60;99.90;;;;;;5037434;28;20029;-32
2022/06/02 06:53:03;;;;;;;6.68;4.55;;;19.30;99.90;;;;;;5039863;28;20024;-38
2022/06/02 06:56:06;;;;;;;4.07;3.67;;;18.40;99.90;;;;;;5054815;28;20485;-32
2022/06/02 06:58:45;;;;;;;3.58;3.28;;;18.20;99.90;;;;;;5034420;28;20496;-30
2022/06/02 07:01:41;;;;;;;4.93;4.38;;;18.70;99.90;;;;;;5034363;28;20123;-38
2022/06/02 07:04:42;;;;;;;6.50;3.70;;;18.50;99.90;;;;;;5049738;28;20044;-35
2022/06/02 07:07:11;;;;;;;6.57;4.35;;;18.20;99.90;;;;;;5022672;28;20502;-36
2022/06/02 07:09:51;;;;;;;10.75;4.13;;;19.90;99.90;;;;;;5036706;28;20563;-30
2022/06/02 07:15:30;;;;;;;7.13;3.60;;;20.60;99.90;;;;;;5049608;28;20060;-44
2022/06/02 07:18:19;;;;;;;7.93;5.20;;;19.30;99.90;;;;;;5051523;28;20070;-32
2022/06/02 07:21:12;;;;;;;7.32;4.18;;;18.20;99.90;;;;;;5034184;28;20060;-28
2022/06/02 07:23:54;;;;;;;4.85;3.92;;;17.90;99.90;;;;;;5036527;28;20389;-29
2022/06/02 07:26:47;;;;;;;7.40;3.70;;;19.10;99.90;;;;;;5034711;28;20025;-28
2022/06/02 07:29:26;;;;;;;6.38;3.63;;;20.00;99.90;;;;;;5034818;28;20490;-34
2022/06/02 07:32:16;;;;;;;3.70;3.40;;;19.00;99.90;;;;;;5048580;28;20474;-30
2022/06/02 07:35:13;;;;;;;3.33;3.03;;;17.50;99.90;;;;;;5040388;28;20033;-31
2022/06/02 07:37:50;;;;;;;3.72;3.05;;;16.70;99.90;;;;;;5038221;28;20013;-38
2022/06/02 07:40:57;;;;;;;2.65;2.15;;;17.20;99.90;;;;;;5045092;28;20500;-28
2022/06/02 07:43:34;;;;;;;5.60;2.67;;;17.80;99.90;;;;;;5030821;28;20083;-31
2022/06/02 07:46:30;;;;;;;6.55;2.47;;;17.40;99.90;;;;;;5040283;28;20025;-32
2022/06/02 07:49:18;;;;;;;6.57;2.90;;;16.60;99.90;;;;;;5048356;28;20532;-37
2022/06/02 07:51:54;;;;;;;3.90;2.70;;;16.10;99.90;;;;;;5032782;28;20035;-34
2022/06/02 07:54:42;;;;;;;3.47;2.00;;;15.70;99.90;;;;;;5039655;28;20481;-37
2022/06/02 07:57:37;;;;;;;2.55;2.35;;;16.10;99.90;;;;;;5052303;28;20465;-29
2022/06/02 08:00:17;;;;;;;3.25;2.65;;;17.00;99.90;;;;;;5038065;28;20067;-37
2022/06/02 08:02:55;;;;;;;5.68;1.88;;;17.70;99.90;;;;;;5034785;28;20100;-30
2022/06/02 08:05:35;;;;;;;8.90;2.17;;;18.40;99.90;;;;;;5042345;28;20025;-37
2022/06/02 08:08:18;;;;;;;6.25;2.50;;;19.10;99.90;;;;;;5050516;28;20365;-36
2022/06/02 08:11:14;;;;;;;4.97;1.55;;;19.20;99.90;;;;;;5051753;28;20526;-33
2022/06/02 08:13:45;;;;;;;1.63;1.52;;;19.50;99.30;;;;;;5050578;28;20035;-33
2022/06/02 08:16:27;;;;;;;2.53;1.40;;;19.80;98.40;;;;;;5037832;28;20485;-30
2022/06/02 08:19:07;;;;;;;2.75;1.63;;;20.10;98.60;;;;;;5036455;28;20027;-33
2022/06/02 08:21:58;;;;;;;3.38;1.95;;;20.60;98.30;;;;;;5053420;28;20020;-33
2022/06/02 08:24:34;;;;;;;4.13;1.15;;;21.30;97.00;;;;;;5050263;28;20032;-44
2022/06/02 08:27:22;;;;;;;2.92;1.70;;;21.90;97.60;;;;;;5050219;28;20187;-37
2022/06/02 08:30:23;;;;;;;2.30;1.70;;;21.90;97.40;;;;;;5047428;28;20444;-30
2022/06/02 08:33:17;;;;;;;1.67;1.52;;;22.00;97.10;;;;;;5052266;28;20029;-71
2022/06/02 08:35:51;;;;;;;3.22;2.17;;;21.30;96.80;;;;;;5050097;28;20053;-38
2022/06/02 08:38:43;;;;;;;4.53;3.65;;;21.40;97.10;;;;;;5046315;28;20079;-35
2022/06/02 08:41:30;;;;;;;3.88;2.70;;;20.90;97.80;;;;;;5038254;28;20025;-37
2022/06/02 08:43:56;;;;;;;4.95;2.55;;;20.30;98.30;;;;;;5036111;28;20167;-31
2022/06/02 08:46:42;;;;;;;7.88;3.28;;;19.70;99.30;;;;;;5047655;28;20108;-30
2022/06/02 08:49:47;;;;;;;4.63;3.50;;;18.90;99.40;;;;;;5035414;28;20575;-30
2022/06/02 08:52:47;;;;;;;7.97;3.80;;;17.80;99.90;;;;;;5017516;28;20481;-31
2022/06/02 08:55:40;;;;;;;5.20;3.03;;;17.80;99.90;;;;;;5043762;28;20040;-46
2022/06/02 08:58:32;;;;;;;2.88;2.58;;;18.10;99.90;;;;;;5033156;28;20116;-74
2022/06/02 09:01:22;;;;;;;3.65;3.35;;;17.80;99.90;;;;;;5048947;28;20104;-38
2022/06/02 09:04:17;;;;;;;3.88;3.47;;;17.80;99.90;;;;;;5035000;28;20029;-37
2022/06/02 09:07:31;;;;;;;2.65;2.45;;;17.50;99.90;;;;;;5033261;28;20489;-35
2022/06/02 09:09:59;;;;;;;2.75;1.95;;;17.50;99.90;;;;;;5032906;28;20527;-36
2022/06/02 09:13:02;;;;;;;2.67;2.47;;;18.10;99.90;;;;;;5032673;28;20030;-32
2022/06/02 09:15:28;;;;;;;3.40;2.22;;;18.90;99.90;;;;;;5053735;28;20053;-29
2022/06/02 09:18:17;;;;;;;4.93;2.78;;;18.90;99.90;;;;;;5041004;28;20033;-29
2022/06/02 09:20:59;;;;;;;2.72;2.28;;;18.60;99.90;;;;;;5038152;28;20526;-29
2022/06/02 09:23:27;;;;;;;3.08;2.50;;;18.60;99.90;;;;;;5037329;28;20056;-32
2022/06/02 09:25:58;;;;;;;4.35;2.15;;;19.20;99.90;;;;;;5034336;28;20508;-30
2022/06/02 09:29:02;;;;;;;4.32;2.67;;;19.90;99.80;;;;;;5033760;28;21279;-33
2022/06/02 09:31:48;;;;;;;3.83;2.45;;;20.70;97.50;;;;;;5034625;28;20033;-33
2022/06/02 09:34:44;;;;;;;3.47;2.87;;;21.20;98.00;;;;;;5031877;28;20076;-33
2022/06/02 09:37:37;;;;;;;4.22;3.03;;;21.70;97.10;;;;;;5038078;28;20025;-33
2022/06/02 09:40:30;;;;;;;4.57;2.72;;;22.10;96.50;;;;;;5036702;28;20477;-31
2022/06/02 09:43:14;;;;;;;2.58;2.38;;;22.10;95.50;;;;;;5049958;28;20032;-32
2022/06/02 09:46:00;;;;;;;3.08;2.47;;;22.10;95.40;;;;;;5041853;28;20113;-33
2022/06/02 09:49:03;;;;;;;7.72;2.70;;;22.10;95.60;;;;;;5047070;28;20029;-31
2022/06/02 09:51:43;;;;;;;3.03;2.28;;;22.20;95.90;;;;;;5035267;28;20033;-29
2022/06/02 09:54:42;;;;;;;3.08;2.70;;;22.10;97.00;;;;;;5035079;28;20381;-29
2022/06/02 09:57:56;;;;;;;2.55;2.28;;;21.70;97.00;;;;;;5033582;28;20721;-30
2022/06/02 10:00:44;;;;;;;7.40;2.67;;;21.70;96.80;;;;;;5033253;28;20121;-29
2022/06/02 10:03:30;;;;;;;3.92;2.67;;;22.20;96.20;;;;;;5035250;28;20029;-29
2022/06/02 10:06:05;;;;;;;4.88;2.42;;;21.60;96.60;;;;;;5030570;28;20587;-36
2022/06/02 10:08:38;;;;;;;4.43;2.95;;;20.90;97.10;;;;;;5029092;28;20037;-35
2022/06/02 10:11:33;;;;;;;3.25;2.15;;;20.70;96.60;;;;;;5036183;28;20485;-33
2022/06/02 10:14:25;;;;;;;5.13;2.20;;;20.80;96.50;;;;;;5029371;28;20801;-34
2022/06/02 10:17:09;;;;;;;4.07;2.60;;;20.20;98.00;;;;;;5036778;28;20064;-30
2022/06/02 10:19:40;;;;;;;3.58;2.03;;;19.60;97.80;;;;;;5033974;28;20034;-33
2022/06/02 10:22:23;;;;;;;2.63;2.33;;;19.60;98.60;;;;;;5046415;28;20021;-32
2022/06/02 10:25:03;;;;;;;3.17;2.15;;;19.80;98.40;;;;;;5031709;28;20111;-35
2022/06/02 10:27:43;;;;;;;2.65;2.25;;;20.30;98.00;;;;;;5033489;28;20493;-36
2022/06/02 10:30:46;;;;;;;2.97;2.28;;;21.10;98.10;;;;;;5042287;28;20044;-29
2022/06/02 10:33:29;;;;;;;2.53;2.33;;;21.90;96.70;;;;;;5051506;28;20029;-30
2022/06/02 10:36:17;;;;;;;3.58;2.10;;;22.00;96.20;;;;;;5036408;28;20108;-33
2022/06/02 10:39:07;;;;;;;5.13;2.55;;;21.80;95.90;;;;;;5046813;28;20473;-29
2022/06/02 10:42:11;;;;;;;3.83;2.28;;;21.50;96.70;;;;;;5053352;28;20036;-32
2022/06/02 10:44:39;;;;;;;5.90;2.20;;;20.60;97.40;;;;;;5038794;28;20041;-28
2022/06/02 10:47:08;;;;;;;4.55;2.65;;;20.50;98.30;;;;;;5037250;28;20060;-30
2022/06/02 10:50:00;;;;;;;3.03;2.40;;;20.50;98.10;;;;;;5036274;28;20034;-28
2022/06/02 10:52:50;;;;;;;3.53;2.17;;;20.10;97.40;;;;;;5034577;28;20481;-31
2022/06/02 10:55:34;;;;;;;3.30;2.47;;;20.00;97.90;;;;;;5036955;28;20033;-31
2022/06/02 10:58:21;;;;;;;4.20;2.15;;;19.90;97.60;;;;;;5042937;28;20405;-36
2022/06/02 11:01:19;;;;;;;3.90;2.15;;;20.10;97.50;;;;;;5033041;28;20121;-36
2022/06/02 11:04:16;;;;;;;3.80;2.00;;;20.00;97.00;;;;;;5032288;28;20497;-31
2022/06/02 11:06:56;;;;;;;;;;;19.60;97.40;;;;;;5034845;28;20091;-35
2022/06/02 11:09:46;;;;;;;2.72;1.83;;;19.50;98.50;;;;;;5049136;28;20364;-33
2022/06/02 11:12:22;;;;;;;5.22;2.30;;;19.70;98.10;;;;;;5048838;28;20033;-35
2022/06/02 11:15:09;;;;;;;4.47;2.15;;;19.80;97.60;;;;;;5034016;28;20060;-29
2022/06/02 11:18:07;;;;;;;2.47;1.55;;;19.90;97.50;;;;;;5034320;28;20469;-29
2022/06/02 11:21:10;;;;;;;3.35;1.55;;;20.10;97.60;;;;;;5036127;28;20037;-31
2022/06/02 11:24:16;;;;;;;1.98;1.50;;;20.10;97.00;;;;;;5033250;28;20091;-29
2022/06/02 11:26:41;;;;;;;1.58;1.40;;;19.80;96.40;;;;;;5034992;28;20107;-32
2022/06/02 11:29:22;;;;;;;1.63;1.45;;;19.40;96.90;;;;;;5033645;28;20030;-32
2022/06/02 11:32:18;;;;;;;1.50;1.40;;;19.50;97.00;;;;;;5049183;28;20033;-33
2022/06/02 11:35:08;;;;;;;2.13;1.45;;;20.00;97.20;;;;;;5048465;28;20029;-29
2022/06/02 11:38:12;;;;;;;1.75;1.30;;;20.20;96.70;;;;;;5046868;28;20032;-31
2022/06/02 11:41:06;;;;;;;1.50;1.40;;;20.20;95.70;;;;;;5039607;28;20074;-31
2022/06/02 11:44:07;;;;;;;1.65;1.20;;;20.30;95.20;;;;;;5047838;28;20485;-34
2022/06/02 11:47:29;;;;;;;2.67;1.10;;;20.40;95.90;;;;;;5037861;28;20400;-30
2022/06/02 11:50:20;;;;;;;3.65;1.63;;;20.50;95.00;;;;;;5031789;28;20485;-34
2022/06/02 11:53:10;;;;;;;1.60;1.02;;;20.60;94.50;;;;;;5025685;28;20053;-32
2022/06/02 11:56:18;;;;;;;1.38;1.27;;;20.70;94.30;;;;;;5031692;28;20056;-31
2022/06/02 11:59:11;;;;;;;2.95;2.25;;;20.80;94.40;;;;;;5039306;28;20041;-30
2022/06/02 12:01:41;;;;;;;6.07;1.48;;;21.10;94.00;;;;;;5033689;28;20022;-31
2022/06/02 12:04:42;;;;;;;2.38;1.02;;;20.90;95.20;;;;;;5039586;28;20029;-29
2022/06/02 12:07:54;;;;;;;1.50;1.08;;;21.00;95.90;;;;;;5042378;28;20025;-37
2022/06/02 12:10:26;;;;;;;4.63;1.13;;;21.20;94.70;;;;;;5032918;28;20517;-33
2022/06/02 12:13:24;;;;;;;1.38;1.27;;;21.30;94.80;;;;;;5033855;28;20028;-34
2022/06/02 12:16:25;;;;;;;1.50;1.40;;;21.50;93.80;;;;;;5033127;28;20531;-32
2022/06/02 12:19:07;;;;;;;4.88;1.50;;;21.90;92.80;;;;;;5038500;28;20175;-31
2022/06/02 12:22:27;;;;;;;1.23;1.13;;;21.70;94.00;;;;;;5041902;28;20033;-34
2022/06/02 12:25:12;;;;;;;2.17;1.73;;;21.30;94.00;;;;;;5041450;28;20048;-38
2022/06/02 12:27:46;;;;;;;2.38;1.33;;;21.00;93.40;;;;;;5033837;28;20481;-29
2022/06/02 12:30:30;;;;;;;1.50;1.40;;;20.70;94.70;;;;;;5032155;28;20029;-28
2022/06/02 12:33:40;;;;;;;5.18;1.20;;;20.50;94.10;;;;;;5034361;28;20025;-30
2022/06/02 12:36:06;;;;;;;2.20;1.45;;;20.20;95.60;;;;;;5037878;28;20025;-32
2022/06/02 12:39:14;;;;;;;1.27;1.00;;;19.80;96.30;;;;;;5041118;28;20082;-38
2022/06/02 12:42:17;;;;;;;1.02;1.00;;;19.70;95.50;;;;;;5047796;28;20524;-32
2022/06/02 12:45:01;;;;;;;2.60;1.60;;;19.80;96.50;;;;;;5032795;28;20033;-31
2022/06/02 12:47:54;;;;;;;1.40;1.30;;;19.70;96.10;;;;;;5041404;28;20061;-30
2022/06/02 12:50:51;;;;;;;3.42;1.10;;;19.50;97.00;;;;;;5032440;28;20517;-30
2022/06/02 12:53:23;;;;;;;3.95;1.38;;;19.40;97.10;;;;;;5042586;28;20099;-31
2022/06/02 12:55:51;;;;;;;2.25;1.20;;;19.30;97.40;;;;;;5038773;28;20035;-29
2022/06/02 12:58:44;;;;;;;2.05;1.30;;;19.20;97.10;;;;;;5049952;28;20462;-33
2022/06/02 13:01:37;;;;;;;1.55;1.45;;;19.30;97.60;;;;;;5041582;28;20501;-36
2022/06/02 13:04:37;;;;;;;1.77;1.38;;;19.80;95.80;;;;;;5043960;28;20036;-33
2022/06/02 13:07:21;;;;;;;3.83;1.38;;;20.00;96.60;;;;;;5031674;28;20397;-39
2022/06/02 13:10:11;;;;;;;4.32;1.70;;;19.80;96.60;;;;;;5045296;28;20112;-38
2022/06/02 13:13:15;;;;;;;1.40;1.30;;;19.70;97.10;;;;;;5033613;28;20466;-37
2022/06/02 13:16:17;;;;;;;2.45;1.00;;;19.90;96.50;;;;;;5033293;28;20053;-43
2022/06/02 13:18:51;;;;;;;1.20;1.08;;;19.90;96.50;;;;;;5046620;28;20489;-30
2022/06/02 13:21:47;;;;;;;2.85;1.15;;;20.00;96.70;;;;;;5032395;28;20052;-31
2022/06/02 13:24:40;;;;;;;2.97;0.93;;;20.20;97.10;;;;;;5027413;28;20109;-30
2022/06/02 13:27:21;;;;;;;1.42;1.10;;;20.20;96.60;;;;;;5028072;28;20425;-38
2022/06/02 13:29:55;;;;;;;0.90;0.85;;;20.10;97.00;;;;;;5031203;28;20512;-34
2022/06/02 13:33:02;;;;;;;0.90;0.90;;;20.10;96.80;;;;;;5030093;28;20494;-32
2022/06/02 13:35:47;;;;;;;3.03;1.00;;;20.10;96.90;;;;;;5031083;28;20490;-30
2022/06/02 13:38:13;;;;;;;1.42;0.73;;;20.10;97.30;;;;;;5031695;28;20034;-33
2022/06/02 13:40:50;;;;;;;2.03;1.13;;;20.30;97.40;;;;;;5035439;28;20029;-31
2022/06/02 13:43:40;;;;;;;1.10;1.02;;;20.50;96.00;;;;;;5032529;28;20091;-33
2022/06/02 13:46:25;;;;;;;1.10;1.10;;;20.70;96.30;;;;;;5042937;28;20033;-36
2022/06/02 13:49:30;;;;;;;2.67;1.10;;;21.10;96.20;;;;;;5032125;28;20037;-33
2022/06/02 13:52:24;;;;;;;1.20;0.95;;;21.80;95.40;;;;;;5028857;28;20504;-33
2022/06/02 13:58:10;;;;;;;1.85;1.55;;;22.30;95.50;;;;;;5031496;28;20037;-32
2022/06/02 14:00:44;;;;;;;1.95;1.17;;;22.50;93.70;;;;;;5036088;28;20068;-32
2022/06/02 14:03:51;;;;;;;2.55;1.38;;;22.60;95.40;;;;;;5036438;28;20030;-47
2022/06/02 14:06:21;;;;;;;3.35;1.10;;;22.60;94.70;;;;;;5035415;28;20095;-43
2022/06/02 14:09:11;;;;;;;9.93;1.35;;;22.80;93.50;;;;;;5048285;28;20103;-39
2022/06/02 14:11:52;;;;;;;1.90;1.10;;;22.90;93.30;;;;;;5054955;28;20032;-37
2022/06/02 14:14:27;;;;;;;1.63;0.90;;;23.00;94.20;;;;;;5040011;28;20115;-56
2022/06/02 14:17:13;;;;;;;2.17;0.90;;;22.70;94.10;;;;;;5038790;28;20025;-54
2022/06/02 14:20:01;;;;;;;2.08;1.13;;;22.40;94.30;;;;;;5040173;28;20088;-37
2022/06/02 14:22:50;;;;;;;7.50;0.93;;;22.50;94.30;;;;;;5033452;28;20048;-42
2022/06/02 14:25:50;;;;;;;3.70;1.17;;;22.40;93.90;;;;;;5034715;28;20033;-37
2022/06/02 14:28:39;;;;;;;1.05;0.98;;;22.10;93.90;;;;;;5036125;28;20115;-38
2022/06/02 14:31:30;;;;;;;0.75;0.75;;;22.10;94.90;;;;;;5039515;28;20045;-35
2022/06/02 14:34:38;;;;;;;0.82;0.80;;;22.00;94.20;;;;;;5030867;28;20494;-36
2022/06/02 14:37:19;;;;;;;5.40;1.08;;;21.80;94.40;;;;;;5033964;28;20446;-34
2022/06/02 14:39:51;;;;;;;0.80;0.80;;;21.70;94.00;;;;;;5034869;28;20029;-33